createdAt,value
2023-01-08T00:00:16.155Z,5.23
2023-01-08T00:03:01.123Z,4.86
2023-01-08T00:05:46.400Z,5.25
2023-01-08T00:08:31.534Z,5.32
2023-01-08T00:11:16.462Z,5.71
2023-01-08T00:14:01.447Z,5.43
2023-01-08T00:16:46.445Z,5.15
2023-01-08T00:19:31.368Z,5.11
2023-01-08T00:22:16.250Z,5.41
2023-01-08T00:25:01.143Z,4.93
2023-01-08T00:27:46.088Z,4.78
2023-01-08T00:30:31.047Z,5.50
2023-01-08T00:33:15.995Z,6.10
2023-01-08T00:36:00.803Z,5.33
2023-01-08T00:38:45.816Z,5.33
2023-01-08T00:41:30.654Z,4.83
2023-01-08T00:44:15.707Z,4.77
2023-01-08T00:47:00.440Z,4.51
2023-01-08T00:49:45.439Z,4.46
2023-01-08T00:52:30.572Z,3.65
2023-01-08T00:55:15.342Z,3.51
2023-01-08T00:58:00.369Z,3.55
2023-01-08T01:00:45.239Z,3.28
2023-01-08T01:03:30.214Z,3.11
2023-01-08T01:06:15.062Z,2.93
2023-01-08T01:09:00.103Z,3.17
2023-01-08T01:11:44.977Z,3.04
2023-01-08T01:14:29.909Z,2.89
2023-01-08T01:17:14.855Z,2.75
2023-01-08T01:19:59.704Z,2.96
2023-01-08T01:22:44.635Z,3.50
2023-01-08T01:25:29.426Z,3.31
2023-01-08T01:28:14.295Z,3.32
2023-01-08T01:30:59.176Z,3.61
2023-01-08T01:33:43.964Z,4.05
2023-01-08T01:36:28.818Z,4.39
2023-01-08T01:39:13.696Z,4.40
2023-01-08T01:41:58.671Z,4.69
2023-01-08T01:44:43.419Z,4.54
2023-01-08T01:47:28.468Z,4.58
2023-01-08T01:50:13.360Z,4.15
2023-01-08T01:52:58.340Z,3.74
2023-01-08T01:55:43.064Z,3.49
2023-01-08T01:58:28.044Z,3.03
2023-01-08T02:01:12.966Z,3.02
2023-01-08T02:03:58.231Z,3.02
2023-01-08T02:06:43.101Z,2.85
2023-01-08T02:09:27.964Z,3.05
2023-01-08T02:12:12.783Z,2.74
2023-01-08T02:14:57.549Z,2.81
2023-01-08T02:17:42.560Z,2.77
2023-01-08T02:20:27.210Z,2.64
2023-01-08T02:23:12.120Z,2.90
2023-01-08T02:25:56.939Z,2.96
2023-01-08T02:28:41.922Z,3.10
2023-01-08T02:31:26.724Z,3.23
2023-01-08T02:34:11.712Z,3.63
2023-01-08T02:36:56.705Z,5.14
2023-01-08T02:39:41.640Z,4.71
2023-01-08T02:42:26.508Z,4.92
2023-01-08T02:45:11.338Z,4.20
2023-01-08T02:47:56.525Z,3.80
2023-01-08T02:50:41.302Z,3.59
2023-01-08T02:53:26.248Z,3.42
2023-01-08T02:56:11.067Z,3.33
2023-01-08T02:58:56.048Z,3.50
2023-01-08T03:01:41.153Z,3.30
2023-01-08T03:04:26.457Z,3.49
2023-01-08T03:07:11.359Z,3.38
2023-01-08T03:09:56.272Z,3.66
2023-01-08T03:12:41.204Z,3.54
2023-01-08T03:15:26.177Z,3.95
2023-01-08T03:18:11.195Z,3.75
2023-01-08T03:20:56.241Z,3.89
2023-01-08T03:23:41.171Z,3.86
2023-01-08T03:26:26.163Z,3.75
2023-01-08T03:29:10.841Z,3.93
2023-01-08T03:31:55.675Z,4.02
2023-01-08T03:34:40.599Z,4.80
2023-01-08T03:37:25.577Z,4.74
2023-01-08T03:40:10.430Z,3.97
2023-01-08T03:42:55.342Z,3.64
2023-01-08T03:45:40.389Z,3.41
2023-01-08T03:48:25.288Z,3.16
2023-01-08T03:51:10.306Z,3.34
2023-01-08T03:53:55.124Z,3.55
2023-01-08T03:56:40.082Z,3.40
2023-01-08T03:59:24.939Z,3.45
2023-01-08T04:02:09.901Z,3.52
2023-01-08T04:04:55.166Z,3.27
2023-01-08T04:07:40.110Z,3.13
2023-01-08T04:10:25.023Z,3.10
2023-01-08T04:13:09.836Z,2.97
2023-01-08T04:15:54.756Z,3.12
2023-01-08T04:18:40.065Z,3.16
2023-01-08T04:21:25.027Z,3.24
2023-01-08T04:24:09.772Z,3.37
2023-01-08T04:26:54.696Z,3.25
2023-01-08T04:29:39.667Z,3.34
2023-01-08T04:32:24.613Z,3.23
2023-01-08T04:35:09.606Z,3.43
2023-01-08T04:37:54.461Z,3.19
2023-01-08T04:40:39.530Z,3.08
2023-01-08T04:43:24.504Z,3.07
2023-01-08T04:46:09.397Z,2.94
2023-01-08T04:48:54.114Z,3.03
2023-01-08T04:51:39.154Z,2.80
2023-01-08T04:54:24.065Z,2.51
2023-01-08T04:57:08.982Z,2.22
2023-01-08T04:59:53.923Z,2.67
2023-01-08T05:02:38.931Z,2.38
2023-01-08T05:05:24.351Z,2.00
2023-01-08T05:08:09.063Z,2.00
2023-01-08T05:10:53.939Z,1.82
2023-01-08T05:13:38.793Z,1.87
2023-01-08T05:16:23.738Z,2.01
2023-01-08T05:19:10.825Z,1.99
2023-01-08T05:21:56.004Z,2.21
2023-01-08T05:24:40.812Z,2.24
2023-01-08T05:27:25.623Z,2.07
2023-01-08T05:30:10.437Z,2.24
2023-01-08T05:32:55.193Z,2.64
2023-01-08T05:35:40.189Z,2.63
2023-01-08T05:38:25.154Z,2.56
2023-01-08T05:41:10.103Z,2.30
2023-01-08T05:43:55.002Z,2.25
2023-01-08T05:46:39.971Z,3.53
2023-01-08T05:49:24.878Z,2.46
2023-01-08T05:52:09.819Z,2.13
2023-01-08T05:54:54.879Z,2.43
2023-01-08T05:57:39.790Z,2.43
2023-01-08T06:00:24.707Z,2.28
2023-01-08T06:03:09.630Z,2.36
2023-01-08T06:05:54.403Z,2.49
2023-01-08T06:08:39.389Z,2.45
2023-01-08T06:11:24.201Z,2.37
2023-01-08T06:14:09.117Z,2.43
2023-01-08T06:16:53.965Z,2.21
2023-01-08T06:19:38.917Z,2.19
2023-01-08T06:22:23.752Z,2.38
2023-01-08T06:25:08.634Z,2.12
2023-01-08T06:27:53.537Z,2.32
2023-01-08T06:30:38.418Z,2.27
2023-01-08T06:33:23.386Z,2.32
2023-01-08T06:36:08.283Z,2.46
2023-01-08T06:38:53.143Z,2.40
2023-01-08T06:41:37.983Z,2.63
2023-01-08T06:44:22.976Z,2.32
2023-01-08T06:47:07.831Z,2.47
2023-01-08T06:49:52.675Z,2.54
2023-01-08T06:52:37.540Z,2.78
2023-01-08T06:55:22.357Z,2.64
2023-01-08T06:58:07.565Z,2.68
2023-01-08T07:00:52.407Z,2.63
2023-01-08T07:03:37.525Z,2.78
2023-01-08T07:06:22.855Z,2.72
2023-01-08T07:09:07.707Z,2.83
2023-01-08T07:11:52.518Z,2.80
2023-01-08T07:14:37.521Z,2.79
2023-01-08T07:17:22.558Z,2.69
2023-01-08T07:20:07.486Z,2.64
2023-01-08T07:22:52.299Z,2.55
2023-01-08T07:25:37.159Z,2.55
2023-01-08T07:28:22.093Z,2.28
2023-01-08T07:31:06.924Z,2.34
2023-01-08T07:33:51.938Z,2.57
2023-01-08T07:36:37.016Z,2.62
2023-01-08T07:39:21.959Z,2.53
2023-01-08T07:42:06.843Z,2.46
2023-01-08T07:44:51.629Z,2.56
2023-01-08T07:47:36.561Z,2.80
2023-01-08T07:50:21.419Z,2.57
2023-01-08T07:53:06.497Z,2.56
2023-01-08T07:55:51.260Z,2.49
2023-01-08T07:58:36.281Z,2.57
2023-01-08T08:01:21.260Z,2.44
2023-01-08T08:04:06.556Z,2.47
2023-01-08T08:06:51.546Z,2.28
2023-01-08T08:09:36.523Z,2.36
2023-01-08T08:12:21.473Z,2.43
2023-01-08T08:15:06.424Z,2.44
2023-01-08T08:17:51.297Z,2.09
2023-01-08T08:20:36.233Z,2.27
2023-01-08T08:23:21.226Z,2.46
2023-01-08T08:26:06.069Z,2.43
2023-01-08T08:28:51.020Z,2.37
2023-01-08T08:31:36.174Z,2.43
2023-01-08T08:34:20.982Z,2.44
2023-01-08T08:37:05.897Z,2.84
2023-01-08T08:39:50.718Z,3.20
2023-01-08T08:42:35.764Z,3.19
2023-01-08T08:45:20.621Z,3.02
2023-01-08T08:48:05.607Z,2.86
2023-01-08T08:50:50.533Z,2.69
2023-01-08T08:53:36.005Z,2.23
2023-01-08T08:56:21.043Z,1.99
2023-01-08T08:59:05.877Z,2.15
2023-01-08T09:01:50.939Z,1.98
2023-01-08T09:04:36.331Z,1.81
2023-01-08T09:07:21.301Z,1.92
2023-01-08T09:10:06.194Z,1.61
2023-01-08T09:12:51.110Z,1.63
2023-01-08T09:15:35.949Z,1.75
2023-01-08T09:18:20.996Z,1.77
2023-01-08T09:21:05.994Z,1.90
2023-01-08T09:23:50.789Z,1.81
2023-01-08T09:26:35.753Z,1.71
2023-01-08T09:29:20.587Z,1.98
2023-01-08T09:32:05.685Z,1.84
2023-01-08T09:34:50.679Z,1.79
2023-01-08T09:37:35.547Z,1.61
2023-01-08T09:40:20.481Z,1.67
2023-01-08T09:43:05.357Z,1.44
2023-01-08T09:45:50.356Z,1.55
2023-01-08T09:48:35.105Z,2.02
2023-01-08T09:51:20.131Z,1.68
2023-01-08T09:54:05.054Z,1.76
2023-01-08T09:56:49.839Z,1.89
2023-01-08T09:59:34.733Z,2.28
2023-01-08T10:02:19.824Z,2.30
2023-01-08T10:05:05.156Z,1.99
2023-01-08T10:07:49.977Z,2.39
2023-01-08T10:10:34.833Z,2.29
2023-01-08T10:13:19.690Z,2.18
2023-01-08T10:16:04.609Z,1.97
2023-01-08T10:18:49.893Z,2.89
2023-01-08T10:21:34.889Z,2.20
2023-01-08T10:24:19.817Z,2.18
2023-01-08T10:27:04.673Z,2.77
2023-01-08T10:29:49.541Z,3.33
2023-01-08T10:32:34.384Z,3.59
2023-01-08T10:35:19.383Z,3.60
2023-01-08T10:38:04.199Z,3.69
2023-01-08T10:40:49.062Z,5.56
2023-01-08T10:43:33.864Z,13.87
2023-01-08T10:46:18.767Z,2.96
2023-01-08T10:49:03.542Z,5.43
2023-01-08T10:51:48.537Z,4.70
2023-01-08T10:54:33.603Z,3.88
2023-01-08T10:57:18.674Z,3.99
2023-01-08T11:00:04.465Z,2.65
2023-01-08T11:02:49.322Z,2.44
2023-01-08T11:05:34.218Z,2.10
2023-01-08T11:08:20.227Z,1.69
2023-01-08T11:11:06.358Z,1.74
2023-01-08T11:13:51.419Z,1.68
2023-01-08T11:16:36.261Z,1.95
2023-01-08T11:19:21.584Z,5.81
2023-01-08T11:22:06.566Z,20.68
2023-01-08T11:24:51.617Z,37.86
2023-01-08T11:27:36.563Z,7.79
2023-01-08T11:30:21.466Z,4.23
2023-01-08T11:33:06.322Z,19.19
2023-01-08T11:35:51.191Z,7.42
2023-01-08T11:38:36.349Z,3.99
2023-01-08T11:41:21.168Z,2.83
2023-01-08T11:44:06.140Z,2.40
2023-01-08T11:46:50.944Z,2.28
2023-01-08T11:49:35.719Z,5.44
2023-01-08T11:52:20.652Z,8.58
2023-01-08T11:55:05.460Z,6.92
2023-01-08T11:57:50.403Z,20.89
2023-01-08T12:00:35.147Z,3.37
2023-01-08T12:03:20.190Z,2.44
2023-01-08T12:06:04.948Z,3.27
2023-01-08T12:08:49.903Z,4.91
2023-01-08T12:11:34.863Z,5.68
2023-01-08T12:14:19.799Z,5.21
2023-01-08T12:17:04.747Z,4.17
2023-01-08T12:19:49.675Z,4.70
2023-01-08T12:22:34.614Z,5.08
2023-01-08T12:25:19.545Z,5.12
2023-01-08T12:28:04.929Z,4.19
2023-01-08T12:30:49.747Z,3.97
2023-01-08T12:33:34.583Z,3.39
2023-01-08T12:36:19.441Z,3.10
2023-01-08T12:39:04.394Z,3.29
2023-01-08T12:41:49.374Z,3.41
2023-01-08T12:44:34.193Z,3.06
2023-01-08T12:47:19.189Z,3.04
2023-01-08T12:50:04.025Z,3.07
2023-01-08T12:52:49.033Z,2.91
2023-01-08T12:55:33.879Z,2.48
2023-01-08T12:58:18.768Z,2.62
2023-01-08T13:01:03.659Z,2.68
2023-01-08T13:03:49.182Z,2.52
2023-01-08T13:06:34.482Z,3.38
2023-01-08T13:09:19.430Z,3.23
2023-01-08T13:12:04.380Z,3.87
2023-01-08T13:14:49.295Z,3.95
2023-01-08T13:17:34.322Z,2.88
2023-01-08T13:20:19.213Z,2.95
2023-01-08T13:23:04.189Z,3.02
2023-01-08T13:25:48.897Z,2.91
2023-01-08T13:28:34.043Z,2.72
2023-01-08T13:31:19.292Z,3.11
2023-01-08T13:34:04.028Z,3.03
2023-01-08T13:36:48.993Z,2.84
2023-01-08T13:39:33.857Z,2.69
2023-01-08T13:42:18.719Z,2.89
2023-01-08T13:45:03.561Z,2.74
2023-01-08T13:47:48.526Z,2.93
2023-01-08T13:50:33.615Z,2.82
2023-01-08T13:53:18.376Z,2.66
2023-01-08T13:56:03.312Z,2.72
2023-01-08T13:58:48.112Z,2.79
2023-01-08T14:01:33.147Z,3.01
2023-01-08T14:04:19.116Z,2.50
2023-01-08T14:07:04.339Z,2.40
2023-01-08T14:09:49.118Z,3.41
2023-01-08T14:12:35.195Z,2.54
2023-01-08T14:15:20.411Z,2.96
2023-01-08T14:18:05.268Z,2.48
2023-01-08T14:20:50.525Z,3.70
2023-01-08T14:23:35.520Z,6.75
2023-01-08T14:26:20.451Z,2.87
2023-01-08T14:29:05.309Z,2.50
2023-01-08T14:31:50.222Z,2.27
2023-01-08T14:34:35.029Z,2.33
2023-01-08T14:37:19.872Z,2.00
2023-01-08T14:40:04.910Z,1.89
2023-01-08T14:42:52.227Z,2.07
2023-01-08T14:45:37.320Z,1.90
2023-01-08T14:48:22.304Z,2.64
2023-01-08T14:51:07.219Z,2.92
2023-01-08T14:53:52.161Z,2.72
2023-01-08T14:56:37.128Z,2.59
2023-01-08T14:59:22.004Z,2.39
2023-01-08T15:02:07.138Z,2.64
2023-01-08T15:04:52.297Z,2.62
2023-01-08T15:07:37.031Z,4.87
2023-01-08T15:10:21.892Z,4.66
2023-01-08T15:13:06.801Z,5.17
2023-01-08T15:15:51.811Z,7.69
2023-01-08T15:18:36.800Z,8.45
2023-01-08T15:21:21.730Z,12.09
2023-01-08T15:24:06.585Z,7.47
2023-01-08T15:26:51.546Z,10.32
2023-01-08T15:29:36.396Z,12.48
2023-01-08T15:32:21.224Z,7.14
2023-01-08T15:35:06.083Z,6.07
2023-01-08T15:37:50.963Z,7.13
2023-01-08T15:40:35.833Z,6.56
2023-01-08T15:43:20.805Z,6.00
2023-01-08T15:46:05.647Z,5.77
2023-01-08T15:48:50.460Z,6.24
2023-01-08T15:51:35.246Z,4.46
2023-01-08T15:54:20.116Z,5.44
2023-01-08T15:57:05.068Z,3.67
2023-01-08T15:59:49.943Z,3.26
2023-01-08T16:02:34.885Z,4.00
2023-01-08T16:05:19.876Z,4.59
2023-01-08T16:08:04.764Z,4.62
2023-01-08T16:10:49.521Z,7.39
2023-01-08T16:13:34.671Z,6.81
2023-01-08T16:16:19.479Z,5.43
2023-01-08T16:19:04.285Z,9.45
2023-01-08T16:21:49.055Z,15.76
2023-01-08T16:24:34.085Z,12.15
2023-01-08T16:27:18.877Z,9.76
2023-01-08T16:30:04.025Z,6.52
2023-01-08T16:32:48.882Z,7.11
2023-01-08T16:35:33.815Z,5.33
2023-01-08T16:38:18.818Z,3.93
2023-01-08T16:41:03.651Z,3.50
2023-01-08T16:43:48.551Z,3.41
2023-01-08T16:46:33.297Z,3.71
2023-01-08T16:49:18.329Z,5.62
2023-01-08T16:52:03.154Z,8.39
2023-01-08T16:54:47.934Z,11.61
2023-01-08T16:57:32.885Z,12.17
2023-01-08T17:00:17.770Z,13.65
2023-01-08T17:03:02.734Z,13.19
2023-01-08T17:05:47.570Z,10.59
2023-01-08T17:08:32.437Z,8.82
2023-01-08T17:11:17.189Z,8.28
2023-01-08T17:14:02.028Z,6.45
2023-01-08T17:16:46.830Z,4.69
2023-01-08T17:19:31.806Z,4.88
2023-01-08T17:22:16.629Z,4.54
2023-01-08T17:25:01.417Z,3.90
2023-01-08T17:27:46.595Z,5.54
2023-01-08T17:30:31.397Z,9.64
2023-01-08T17:33:16.391Z,8.39
2023-01-08T17:36:01.105Z,7.82
2023-01-08T17:38:46.114Z,7.93
2023-01-08T17:41:30.873Z,7.22
2023-01-08T17:44:15.756Z,7.47
2023-01-08T17:47:00.703Z,7.81
2023-01-08T17:49:45.456Z,7.10
2023-01-08T17:52:30.300Z,7.10
2023-01-08T17:55:15.140Z,15.13
2023-01-08T17:58:00.162Z,23.31
2023-01-08T18:00:45.275Z,14.02
2023-01-08T18:03:30.031Z,8.92
2023-01-08T18:06:14.793Z,4.72
2023-01-08T18:08:59.568Z,3.50
2023-01-08T18:11:44.473Z,2.98
2023-01-08T18:14:29.370Z,3.02
2023-01-08T18:17:14.344Z,4.67
2023-01-08T18:19:59.150Z,5.30
2023-01-08T18:22:44.129Z,4.31
2023-01-08T18:25:29.667Z,4.02
2023-01-08T18:28:14.929Z,3.97
2023-01-08T18:30:59.955Z,4.17
2023-01-08T18:33:44.843Z,4.42
2023-01-08T18:36:29.855Z,4.63
2023-01-08T18:39:16.725Z,4.23
2023-01-08T18:42:01.755Z,4.40
2023-01-08T18:44:51.671Z,4.50
2023-01-08T18:47:36.596Z,2.94
2023-01-08T18:50:21.474Z,2.34
2023-01-08T18:53:06.260Z,2.52
2023-01-08T18:55:51.181Z,2.38
2023-01-08T18:58:36.167Z,2.17
2023-01-08T19:01:21.068Z,2.44
2023-01-08T19:04:06.604Z,4.68
2023-01-08T19:06:51.475Z,2.00
2023-01-08T19:09:36.543Z,1.69
2023-01-08T19:12:21.321Z,1.51
2023-01-08T19:15:06.122Z,1.58
2023-01-08T19:17:50.988Z,2.68
2023-01-08T19:20:35.761Z,2.22
2023-01-08T19:23:20.674Z,2.01
2023-01-08T19:26:05.637Z,1.64
2023-01-08T19:28:50.620Z,3.48
2023-01-08T19:31:35.557Z,1.59
2023-01-08T19:34:21.199Z,2.09
2023-01-08T19:37:06.004Z,2.04
2023-01-08T19:39:51.080Z,2.79
2023-01-08T19:42:35.899Z,1.88
2023-01-08T19:45:20.723Z,1.98
2023-01-08T19:48:05.690Z,1.53
2023-01-08T19:50:50.444Z,1.65
2023-01-08T19:53:35.530Z,1.51
2023-01-08T19:56:20.270Z,1.50
2023-01-08T19:59:05.271Z,1.73
2023-01-08T20:01:50.360Z,1.45
2023-01-08T20:04:35.649Z,1.77
2023-01-08T20:07:20.581Z,2.27
2023-01-08T20:10:05.513Z,1.97
2023-01-08T20:12:50.357Z,2.15
2023-01-08T20:15:35.242Z,4.79
2023-01-08T20:18:20.181Z,2.85
2023-01-08T20:21:05.121Z,2.34
2023-01-08T20:23:50.115Z,2.00
2023-01-08T20:26:35.015Z,2.05
2023-01-08T20:29:20.083Z,2.18
2023-01-08T20:32:05.018Z,4.65
2023-01-08T20:34:49.740Z,2.18
2023-01-08T20:37:34.643Z,3.10
2023-01-08T20:40:19.491Z,2.70
2023-01-08T20:43:04.470Z,2.22
2023-01-08T20:45:49.334Z,1.78
2023-01-08T20:48:39.766Z,1.80
2023-01-08T20:51:27.812Z,1.23
2023-01-08T20:54:12.673Z,1.38
2023-01-08T20:56:57.624Z,1.16
2023-01-08T20:59:42.405Z,1.15
2023-01-08T21:02:27.401Z,1.17
2023-01-08T21:05:12.527Z,1.26
2023-01-08T21:07:57.342Z,1.32
2023-01-08T21:10:42.427Z,1.38
2023-01-08T21:13:27.346Z,1.42
2023-01-08T21:16:12.124Z,1.47
2023-01-08T21:18:56.831Z,1.43
2023-01-08T21:21:41.683Z,1.32
2023-01-08T21:24:26.749Z,1.21
2023-01-08T21:27:11.485Z,1.10
2023-01-08T21:29:56.527Z,1.18
2023-01-08T21:32:41.304Z,1.55
2023-01-08T21:35:26.233Z,1.56
2023-01-08T21:38:11.034Z,1.59
2023-01-08T21:40:55.876Z,1.58
2023-01-08T21:43:40.695Z,1.14
2023-01-08T21:46:25.673Z,1.54
2023-01-08T21:49:10.530Z,1.68
2023-01-08T21:51:55.450Z,2.30
2023-01-08T21:54:40.303Z,2.03
2023-01-08T21:57:25.125Z,2.24
2023-01-08T22:00:09.917Z,1.76
2023-01-08T22:02:54.743Z,2.08
2023-01-08T22:05:39.595Z,2.81
2023-01-08T22:08:24.457Z,5.41
2023-01-08T22:11:10.057Z,3.19
2023-01-08T22:13:54.917Z,8.45
2023-01-08T22:16:39.733Z,2.34
2023-01-08T22:19:24.715Z,1.62
2023-01-08T22:22:10.884Z,1.59
2023-01-08T22:24:56.256Z,2.06
2023-01-08T22:27:41.149Z,1.98
2023-01-08T22:30:26.184Z,3.20
2023-01-08T22:33:11.025Z,2.08
2023-01-08T22:35:57.264Z,1.56
2023-01-08T22:38:42.582Z,1.54
2023-01-08T22:41:27.404Z,1.49
2023-01-08T22:44:12.461Z,1.36
2023-01-08T22:46:57.323Z,1.31
2023-01-08T22:49:42.269Z,1.31
2023-01-08T22:52:27.222Z,1.47
2023-01-08T22:55:12.062Z,1.35
2023-01-08T22:57:56.934Z,1.21
2023-01-08T23:00:41.710Z,1.23
2023-01-08T23:03:28.768Z,1.11
2023-01-08T23:06:14.453Z,1.23
2023-01-08T23:08:59.259Z,1.01
2023-01-08T23:11:44.254Z,1.26
2023-01-08T23:14:29.028Z,1.19
2023-01-08T23:17:13.893Z,1.08
2023-01-08T23:19:58.887Z,1.50
2023-01-08T23:22:43.757Z,1.25
2023-01-08T23:25:28.587Z,1.22
2023-01-08T23:28:13.391Z,1.28
2023-01-08T23:30:58.282Z,1.20
2023-01-08T23:33:43.063Z,1.25
2023-01-08T23:36:27.876Z,1.14
2023-01-08T23:39:12.841Z,1.12
2023-01-08T23:41:57.860Z,1.22
2023-01-08T23:44:42.680Z,1.33
2023-01-08T23:47:27.745Z,1.48
2023-01-08T23:50:12.617Z,1.64
2023-01-08T23:52:57.599Z,1.60
2023-01-08T23:55:42.414Z,1.58
2023-01-08T23:58:27.357Z,1.58
